This is the latest recevied weather packets stored in our database for station/object NI4CE-10. If no packets are shown the sender has not sent any weather packets the latest 1 day(s).
| Time | Temp. | Humidity | Pressure | Rain* | Wind** | Luminosity | Snow |
|---|---|---|---|---|---|---|---|
| 1777991892 | 27.78° C | 100% | 1018.4 hPa | 0 mm | 2.68 m/s, 98° | - | - |
| 1777991748 | 27.78° C | 100% | 1018.4 hPa | 0 mm | 2.68 m/s, 98° | - | - |
| 1777991618 | 26.67° C | 100% | 1018.4 hPa | 0 mm | 3.58 m/s, 94° | - | - |
| 1777991574 | 26.67° C | 100% | 1018.4 hPa | 0 mm | 3.58 m/s, 94° | - | - |
| 1777991448 | 26.67° C | 100% | 1018.4 hPa | 0 mm | 3.58 m/s, 94° | - | - |
| 1777991328 | 26.67° C | 100% | 1018.1 hPa | 0 mm | 1.34 m/s, 153° | - | - |
| 1777991293 | 27.22° C | 100% | 1018.3 hPa | 0 mm | 4.02 m/s, 113° | - | - |
| 1777991148 | 27.22° C | 100% | 1018.3 hPa | 0 mm | 4.02 m/s, 113° | - | - |
| 1777990848 | 27.22° C | 100% | 1018.2 hPa | 0 mm | 2.24 m/s, 78° | - | - |
| 1777990680 | 26.67° C | 100% | 1018.1 hPa | 0 mm | 1.34 m/s, 153° | - | - |
| 1777990548 | 26.67° C | 100% | 1018.1 hPa | 0 mm | 1.34 m/s, 153° | - | - |
| 1777990248 | 26.67° C | 100% | 1018.1 hPa | 0 mm | 1.34 m/s, 146° | - | - |
| 1777989948 | 26.11° C | 100% | 1018.1 hPa | 0 mm | 4.47 m/s, 135° | - | - |
| 1777989648 | 26.11° C | 100% | 1018.1 hPa | 0 mm | 3.13 m/s, 115° | - | - |
| 1777989348 | 26.11° C | 100% | 1018.1 hPa | 0 mm | 3.58 m/s, 156° | - | - |
| 1777989048 | 25.56° C | 100% | 1017.9 hPa | 0 mm | 3.13 m/s, 116° | - | - |
| 1777989007 | 26.11° C | 100% | 1017.9 hPa | 0 mm | 4.47 m/s, 84° | - | - |
| 1777988748 | 26.11° C | 100% | 1017.9 hPa | 0 mm | 4.47 m/s, 84° | - | - |
| 1777988448 | 25.56° C | 100% | 1017.9 hPa | 0 mm | 4.02 m/s, 126° | - | - |
| 1777988405 | 25.56° C | 100% | 1017.9 hPa | 0 mm | 2.68 m/s, 94° | - | - |
| 1777988148 | 25.56° C | 100% | 1017.9 hPa | 0 mm | 2.68 m/s, 94° | - | - |
| 1777987848 | 25° C | 100% | 1018 hPa | 0 mm | 2.24 m/s, 84° | - | - |
| 1777987805 | 25° C | 100% | 1017.9 hPa | 0 mm | 3.13 m/s, 106° | - | - |
| 1777987548 | 25° C | 100% | 1017.9 hPa | 0 mm | 3.13 m/s, 106° | - | - |
| 1777987298 | 25° C | 100% | 1017.8 hPa | 0 mm | 4.02 m/s, 66° | - | - |
* Rain latest hour (hover to see other rain measurements)
** Current wind speed in m/s (hover to see current wind gust speed)